createdAt,value
2023-05-14T00:01:03.003Z,74.87
2023-05-14T00:04:12.731Z,75.08
2023-05-14T00:07:21.327Z,75.25
2023-05-14T00:10:27.981Z,75.75
2023-05-14T00:13:40.458Z,75.96
2023-05-14T00:16:53.130Z,75.42
2023-05-14T00:20:07.700Z,75.75
2023-05-14T00:23:22.452Z,75.64
2023-05-14T00:26:29.262Z,75.66
2023-05-14T00:29:33.827Z,75.77
2023-05-14T00:32:47.562Z,75.74
2023-05-14T00:35:52.548Z,74.24
2023-05-14T00:38:56.644Z,75.04
2023-05-14T00:42:01.168Z,74.40
2023-05-14T00:45:04.114Z,74.73
2023-05-14T00:48:07.416Z,75.04
2023-05-14T00:51:10.143Z,75.70
2023-05-14T00:54:13.858Z,75.03
2023-05-14T00:57:19.596Z,75.12
2023-05-14T01:00:28.678Z,75.05
2023-05-14T01:03:37.887Z,75.31
2023-05-14T01:06:52.837Z,74.91
2023-05-14T01:10:47.076Z,75.68
2023-05-14T01:13:57.216Z,75.82
2023-05-14T01:17:04.507Z,75.23
2023-05-14T01:20:11.047Z,75.47
2023-05-14T01:23:22.811Z,75.55
2023-05-14T01:26:49.319Z,76.24
2023-05-14T01:33:43.465Z,77.83
2023-05-14T01:36:53.091Z,77.63
2023-05-14T01:40:01.078Z,78.39
2023-05-14T01:43:13.294Z,77.80
2023-05-14T01:46:49.188Z,77.64
2023-05-14T01:49:58.895Z,77.28
2023-05-14T01:53:04.653Z,77.27
2023-05-14T01:56:08.442Z,77.43
2023-05-14T01:59:12.722Z,77.71
2023-05-14T02:02:26.462Z,77.54
2023-05-14T02:05:32.077Z,77.63
2023-05-14T02:08:45.080Z,77.83
2023-05-14T02:11:57.582Z,78.43
2023-05-14T02:15:09.756Z,77.71
2023-05-14T02:18:32.500Z,77.13
2023-05-14T02:21:51.417Z,77.27
2023-05-14T02:25:01.963Z,76.98
2023-05-14T02:28:08.422Z,77.00
2023-05-14T02:31:14.835Z,77.08
2023-05-14T02:34:18.558Z,76.70
2023-05-14T02:37:28.181Z,76.48
2023-05-14T02:40:49.471Z,76.30
2023-05-14T02:44:12.915Z,76.76
2023-05-14T02:54:27.849Z,75.75
2023-05-14T02:57:46.853Z,75.50
2023-05-14T03:01:15.341Z,75.05
2023-05-14T03:04:31.829Z,75.83
2023-05-14T03:11:23.104Z,75.74
2023-05-14T03:19:46.992Z,75.08
2023-05-14T03:23:20.557Z,74.66
2023-05-14T03:30:30.234Z,74.58
2023-05-14T03:34:13.936Z,74.38
2023-05-14T03:38:06.063Z,74.25
2023-05-14T03:41:24.880Z,74.29
2023-05-14T03:52:33.716Z,74.18
2023-05-14T04:01:12.060Z,74.11
2023-05-14T04:04:32.529Z,73.96
2023-05-14T04:08:27.361Z,73.59
2023-05-14T04:12:12.294Z,74.26
2023-05-14T04:16:13.077Z,73.64
2023-05-14T04:24:03.236Z,73.74
2023-05-14T04:27:27.723Z,73.67
2023-05-14T04:31:06.085Z,73.62
2023-05-14T04:38:43.785Z,73.61
2023-05-14T04:42:08.036Z,73.90
2023-05-14T04:50:35.250Z,73.15
2023-05-14T04:54:11.460Z,72.69
2023-05-14T04:58:14.819Z,72.79
2023-05-14T05:19:59.727Z,73.51
2023-05-14T05:28:31.650Z,73.89
2023-05-14T05:33:16.230Z,74.90
2023-05-14T06:10:47.694Z,75.50
2023-05-14T06:22:59.008Z,77.09
2023-05-14T06:26:15.118Z,76.30
2023-05-14T06:29:26.751Z,75.33
2023-05-14T06:32:54.686Z,77.28
2023-05-14T06:36:10.139Z,77.94
2023-05-14T06:39:16.591Z,77.41
2023-05-14T06:42:28.542Z,77.44
2023-05-14T06:45:49.199Z,77.77
2023-05-14T06:48:59.780Z,77.10
2023-05-14T06:52:04.174Z,77.90
2023-05-14T06:55:11.367Z,77.84
2023-05-14T06:58:22.300Z,77.07
2023-05-14T07:01:36.308Z,76.32
2023-05-14T07:04:53.137Z,76.12
2023-05-14T07:07:59.264Z,77.04
2023-05-14T07:11:07.457Z,76.37
2023-05-14T07:14:11.364Z,75.33
2023-05-14T07:17:23.116Z,75.61
2023-05-14T07:20:27.555Z,75.44
2023-05-14T07:23:36.740Z,74.92
2023-05-14T07:26:51.221Z,74.51
2023-05-14T07:30:14.918Z,74.01
2023-05-14T07:33:36.564Z,75.05
2023-05-14T07:36:49.110Z,73.52
2023-05-14T07:39:58.730Z,73.80
2023-05-14T07:43:24.271Z,75.41
2023-05-14T07:51:38.594Z,73.82
2023-05-14T08:05:54.363Z,75.71
2023-05-14T08:09:10.269Z,75.56
2023-05-14T08:12:32.241Z,76.07
2023-05-14T08:16:13.080Z,77.13
2023-05-14T08:23:00.058Z,77.39
2023-05-14T08:26:14.496Z,76.99
2023-05-14T08:29:22.686Z,77.85
2023-05-14T08:32:31.934Z,79.26
2023-05-14T08:35:45.755Z,78.71
2023-05-14T08:39:09.702Z,79.24
2023-05-14T08:42:33.108Z,79.93
2023-05-14T08:45:49.727Z,79.18
2023-05-14T08:49:09.040Z,79.61
2023-05-14T08:52:30.838Z,80.20
2023-05-14T08:55:59.382Z,78.47
2023-05-14T08:59:08.747Z,79.52
2023-05-14T09:02:34.823Z,80.08
2023-05-14T09:05:55.001Z,80.15
2023-05-14T09:09:01.261Z,80.13
2023-05-14T09:12:09.027Z,79.23
2023-05-14T09:15:22.566Z,78.81
2023-05-14T09:18:45.767Z,79.15
2023-05-14T09:22:03.449Z,79.71
2023-05-14T09:25:25.691Z,80.05
2023-05-14T09:28:56.293Z,77.75
2023-05-14T09:32:16.872Z,77.34
2023-05-14T09:35:28.138Z,77.85
2023-05-14T09:38:51.424Z,77.96
2023-05-14T09:42:01.100Z,78.44
2023-05-14T09:45:11.531Z,77.84
2023-05-14T09:48:20.380Z,78.21
2023-05-14T09:51:24.324Z,77.40
2023-05-14T09:54:35.700Z,78.88
2023-05-14T09:57:39.796Z,78.12
2023-05-14T10:00:51.592Z,79.26
2023-05-14T10:04:00.129Z,79.61
2023-05-14T10:07:04.570Z,79.10
2023-05-14T10:10:12.346Z,80.04
2023-05-14T10:13:20.960Z,79.80
2023-05-14T10:16:34.885Z,79.97
2023-05-14T10:19:41.043Z,81.24
2023-05-14T10:22:50.433Z,81.22
2023-05-14T10:25:57.198Z,79.68
2023-05-14T10:29:01.604Z,80.12
2023-05-14T10:32:07.534Z,80.10
2023-05-14T10:35:23.812Z,80.21
2023-05-14T10:38:28.633Z,78.94
2023-05-14T10:41:46.641Z,79.09
2023-05-14T10:45:07.763Z,79.27
2023-05-14T10:48:12.489Z,79.80
2023-05-14T10:51:24.031Z,79.96
2023-05-14T10:54:36.112Z,78.79
2023-05-14T10:57:47.863Z,79.22
2023-05-14T11:01:09.270Z,78.50
2023-05-14T11:04:28.812Z,77.57
2023-05-14T11:07:49.795Z,78.12
2023-05-14T11:10:57.795Z,79.49
2023-05-14T11:14:08.464Z,78.71
2023-05-14T11:17:45.968Z,79.26
2023-05-14T11:21:28.970Z,79.56
2023-05-14T11:25:24.483Z,80.06
2023-05-14T11:32:22.688Z,81.39
2023-05-14T11:35:27.411Z,81.09
2023-05-14T11:38:50.045Z,81.73
2023-05-14T11:42:06.523Z,81.06
2023-05-14T11:45:34.758Z,81.71
2023-05-14T11:52:15.833Z,83.36
2023-05-14T11:55:23.807Z,82.41
2023-05-14T12:02:03.656Z,82.07
2023-05-14T12:05:11.736Z,83.32
2023-05-14T12:08:43.200Z,83.59
2023-05-14T12:12:02.457Z,83.96
2023-05-14T12:15:34.418Z,85.72
2023-05-14T12:18:55.917Z,85.01
2023-05-14T12:22:13.312Z,84.79
2023-05-14T12:25:24.883Z,83.21
2023-05-14T12:28:38.587Z,85.78
2023-05-14T12:32:03.570Z,84.37
2023-05-14T12:35:17.283Z,84.89
2023-05-14T12:38:29.983Z,86.94
2023-05-14T12:41:55.668Z,86.56
2023-05-14T12:45:07.477Z,87.19
2023-05-14T12:48:21.465Z,86.93
2023-05-14T12:51:31.605Z,87.84
2023-05-14T12:54:44.943Z,88.71
2023-05-14T12:57:58.735Z,88.49
2023-05-14T13:01:11.180Z,89.87
2023-05-14T13:08:02.885Z,90.13
2023-05-14T13:11:09.771Z,89.78
2023-05-14T13:14:43.745Z,90.83
2023-05-14T13:18:25.635Z,91.19
2023-05-14T13:21:44.532Z,90.76
2023-05-14T13:28:34.899Z,91.84
2023-05-14T13:31:49.543Z,91.46
2023-05-14T13:35:12.067Z,91.84
2023-05-14T13:42:12.778Z,91.86
2023-05-14T13:45:25.904Z,91.34
2023-05-14T13:48:45.192Z,91.88
2023-05-14T13:51:56.673Z,92.38
2023-05-14T13:55:26.537Z,93.22
2023-05-14T13:58:33.612Z,93.27
2023-05-14T14:01:55.572Z,92.92
2023-05-14T14:05:05.363Z,93.35
2023-05-14T14:08:23.457Z,93.82
2023-05-14T14:11:35.456Z,93.72
2023-05-14T14:14:54.584Z,94.52
2023-05-14T14:18:29.232Z,94.35
2023-05-14T14:21:46.300Z,95.63
2023-05-14T14:25:13.183Z,94.85
2023-05-14T14:28:26.086Z,94.79
2023-05-14T14:31:44.851Z,95.12
2023-05-14T14:34:50.678Z,94.69
2023-05-14T14:38:01.308Z,94.58
2023-05-14T14:41:31.511Z,94.71
2023-05-14T14:45:01.392Z,95.10
2023-05-14T14:48:36.797Z,95.55
2023-05-14T14:55:32.287Z,94.95
2023-05-14T14:59:01.559Z,94.10
2023-05-14T15:02:48.241Z,94.64
2023-05-14T15:06:31.118Z,95.74
2023-05-14T15:09:51.484Z,95.57
2023-05-14T15:13:15.663Z,95.46
2023-05-14T15:16:35.471Z,94.70
2023-05-14T15:19:45.925Z,95.87
2023-05-14T15:23:16.237Z,95.17
2023-05-14T15:26:29.980Z,95.38
2023-05-14T15:30:05.135Z,95.88
2023-05-14T15:33:24.015Z,95.79
2023-05-14T15:36:42.850Z,95.79
2023-05-14T15:39:52.249Z,95.66
2023-05-14T15:43:05.759Z,95.81
2023-05-14T15:46:18.586Z,95.95
2023-05-14T15:49:27.963Z,96.31
2023-05-14T15:52:52.953Z,96.10
2023-05-14T15:56:23.638Z,96.20
2023-05-14T15:59:31.852Z,96.77
2023-05-14T16:02:35.454Z,96.09
2023-05-14T16:05:48.696Z,96.21
2023-05-14T16:08:58.748Z,96.22
2023-05-14T16:12:04.519Z,96.52
2023-05-14T16:15:09.541Z,96.17
2023-05-14T16:18:16.810Z,96.16
2023-05-14T16:21:25.962Z,96.13
2023-05-14T16:24:28.886Z,95.89
2023-05-14T16:27:33.771Z,95.67
2023-05-14T16:30:37.161Z,95.89
2023-05-14T16:33:52.614Z,95.46
2023-05-14T16:37:00.196Z,95.52
2023-05-14T16:40:03.909Z,95.72
2023-05-14T16:43:13.069Z,95.03
2023-05-14T16:46:19.824Z,95.54
2023-05-14T16:49:25.664Z,96.01
2023-05-14T16:52:51.990Z,95.07
2023-05-14T16:56:20.133Z,94.93
2023-05-14T16:59:46.459Z,95.07
2023-05-14T17:03:03.729Z,95.57
2023-05-14T17:06:15.890Z,95.87
2023-05-14T17:09:24.569Z,95.47
2023-05-14T17:12:37.294Z,95.92
2023-05-14T17:15:50.030Z,95.61
2023-05-14T17:18:56.569Z,95.66
2023-05-14T17:22:01.039Z,96.05
2023-05-14T17:25:06.487Z,96.42
2023-05-14T17:28:26.852Z,96.10
2023-05-14T17:31:33.945Z,96.35
2023-05-14T17:34:50.738Z,96.15
2023-05-14T17:38:01.081Z,96.49
2023-05-14T17:41:23.350Z,96.58
2023-05-14T17:44:33.076Z,97.42
2023-05-14T17:47:40.921Z,97.07
2023-05-14T17:50:48.138Z,96.44
2023-05-14T17:54:02.989Z,96.29
2023-05-14T17:57:07.797Z,96.49
2023-05-14T18:00:14.048Z,96.66
2023-05-14T18:03:20.625Z,97.52
2023-05-14T18:06:30.321Z,97.10
2023-05-14T18:09:39.235Z,96.45
2023-05-14T18:12:50.504Z,95.42
2023-05-14T18:16:04.013Z,95.49
2023-05-14T18:19:21.424Z,94.79
2023-05-14T18:22:35.031Z,96.11
2023-05-14T18:26:34.218Z,96.98
2023-05-14T18:33:21.504Z,97.32
2023-05-14T18:39:54.856Z,96.99
2023-05-14T18:46:46.156Z,95.67
2023-05-14T18:49:59.564Z,95.93
2023-05-14T18:53:23.818Z,95.81
2023-05-14T18:56:55.006Z,96.05
2023-05-14T19:04:26.455Z,96.71
2023-05-14T19:08:13.287Z,96.92
2023-05-14T19:20:29.487Z,96.54
2023-05-14T19:27:48.999Z,97.33
2023-05-14T19:31:14.397Z,97.07
2023-05-14T19:34:45.423Z,97.16
2023-05-14T19:38:21.825Z,97.32
2023-05-14T19:46:21.704Z,97.26
2023-05-14T19:50:27.186Z,97.74
2023-05-14T19:57:45.253Z,98.17
2023-05-14T20:01:56.084Z,98.36
2023-05-14T20:05:57.581Z,97.35
2023-05-14T20:09:33.213Z,97.09
2023-05-14T20:12:59.627Z,97.45
2023-05-14T20:16:20.827Z,97.45
2023-05-14T20:19:49.654Z,97.59
2023-05-14T20:23:25.495Z,97.90
2023-05-14T20:31:11.597Z,98.79
2023-05-14T20:35:11.679Z,99.06
2023-05-14T20:38:30.063Z,99.00
2023-05-14T20:41:52.027Z,98.91
2023-05-14T20:45:06.064Z,98.96
2023-05-14T20:51:51.753Z,98.13
2023-05-14T20:55:00.852Z,97.66
2023-05-14T20:58:12.124Z,98.18
2023-05-14T21:01:19.227Z,98.17
2023-05-14T21:04:30.308Z,97.59
2023-05-14T21:07:37.639Z,97.23
2023-05-14T21:10:48.175Z,97.20
2023-05-14T21:13:54.568Z,97.52
2023-05-14T21:16:57.806Z,96.80
2023-05-14T21:20:04.064Z,96.81
2023-05-14T21:23:13.597Z,97.24
2023-05-14T21:26:29.622Z,97.25
2023-05-14T21:29:39.472Z,97.42
2023-05-14T21:32:42.836Z,97.07
2023-05-14T21:35:54.238Z,97.53
2023-05-14T21:38:58.470Z,97.06
2023-05-14T21:42:17.513Z,97.33
2023-05-14T21:45:30.841Z,97.90
2023-05-14T21:48:58.145Z,98.39
2023-05-14T21:56:01.730Z,97.75
2023-05-14T21:59:39.596Z,98.04
2023-05-14T22:02:55.437Z,98.13
2023-05-14T22:06:15.220Z,97.50
2023-05-14T22:09:19.122Z,97.26
2023-05-14T22:12:34.973Z,97.52
2023-05-14T22:15:58.134Z,97.33
2023-05-14T22:19:33.527Z,97.05
2023-05-14T22:22:48.673Z,97.31
2023-05-14T22:26:00.246Z,97.54
2023-05-14T22:29:16.889Z,97.64
2023-05-14T22:32:25.974Z,97.79
2023-05-14T22:35:47.330Z,97.69
2023-05-14T22:39:01.184Z,97.18
2023-05-14T22:42:10.772Z,97.11
2023-05-14T22:45:15.385Z,97.01
2023-05-14T22:48:34.388Z,96.45
2023-05-14T22:52:01.956Z,97.26
2023-05-14T22:55:20.090Z,97.21
2023-05-14T22:58:52.742Z,98.08
2023-05-14T23:02:11.418Z,98.54
2023-05-14T23:05:27.066Z,97.77
2023-05-14T23:08:49.332Z,98.51
2023-05-14T23:12:18.187Z,97.96
2023-05-14T23:15:38.826Z,98.03
2023-05-14T23:19:07.513Z,98.14
2023-05-14T23:22:35.263Z,97.45
2023-05-14T23:26:10.267Z,97.35
2023-05-14T23:29:43.540Z,97.61
2023-05-14T23:33:04.598Z,97.20
2023-05-14T23:36:48.522Z,97.73
2023-05-14T23:44:11.696Z,97.93
2023-05-14T23:47:45.447Z,98.00
2023-05-14T23:51:42.056Z,97.98
2023-05-14T23:55:02.557Z,98.12
2023-05-14T23:58:41.827Z,98.29
